Weather at Seabrook Station Heliport

Public forecast

Using degrees Fahrenheit for public forecast. Weather courtesy of forecast.io.

Closest aviation weather report (METAR) to Seabrook Station Heliport

Closest report is Portsmouth International at Pease Airport, 11.1 nm (20.5 km) N. Retrieved 2021/01/26 03:56 UTC (22 minutes ago):

KPSM 260356Z 27004KT 10SM BKN200 M05/M13 A3008 RMK AO2A SLP190 T10511132 RVRNO

Closest aviation forecast (TAF) to Seabrook Station Heliport

Closest forecast is Portsmouth International at Pease Airport, 11.1 nm (20.5 km) N. Retrieved 2021-01-26 00:22 UTC (4 hours ago):

TAF KPSM 252320Z 2600/2624 30007KT P6SM SKC FM261200 VRB05KT P6SM SCT200 FM262200 VRB04KT 6SM -SN BKN080